createdAt,value
2018-07-28T00:09:07.765Z,4.17
2018-07-28T00:19:10.853Z,4.17
2018-07-28T00:29:14.027Z,4.67
2018-07-28T00:39:17.201Z,4.23
2018-07-28T00:49:20.297Z,4.33
2018-07-28T00:59:23.455Z,4.50
2018-07-28T01:09:26.609Z,4.35
2018-07-28T01:19:29.735Z,5.27
2018-07-28T01:29:32.842Z,5.43
2018-07-28T01:39:35.977Z,4.70
2018-07-28T01:49:39.122Z,4.50
2018-07-28T01:59:42.314Z,6.33
2018-07-28T02:09:45.451Z,5.12
2018-07-28T02:19:49.022Z,5.13
2018-07-28T02:29:52.750Z,4.67
2018-07-28T02:39:55.901Z,4.80
2018-07-28T02:49:59.736Z,4.43
2018-07-28T03:00:02.771Z,5.20
2018-07-28T03:10:06.092Z,5.20
2018-07-28T03:20:09.221Z,5.17
2018-07-28T03:30:12.414Z,5.00
2018-07-28T03:40:15.694Z,5.13
2018-07-28T03:50:18.989Z,5.03
2018-07-28T04:00:22.049Z,5.20
2018-07-28T04:10:25.203Z,5.20
2018-07-28T04:20:28.638Z,5.50
2018-07-28T04:30:31.707Z,6.00
2018-07-28T04:40:34.774Z,6.10
2018-07-28T04:50:38.969Z,6.60
2018-07-28T05:00:42.051Z,6.37
2018-07-28T05:10:45.202Z,6.45
2018-07-28T05:20:48.341Z,6.17
2018-07-28T05:30:52.213Z,6.00
2018-07-28T05:40:55.498Z,6.13
2018-07-28T05:50:58.569Z,6.65
2018-07-28T06:01:01.723Z,9.17
2018-07-28T06:11:05.908Z,6.27
2018-07-28T06:21:09.045Z,6.22
2018-07-28T06:31:12.156Z,5.30
2018-07-28T06:41:15.325Z,5.60
